Augusta State Airport Augusta US
ICAO: KAUG
IATA: AUG
Category: Medium
Scheduled Services: Yes

Elevation: 352 ft
TransAlt. 18000 ft.

Airport Communications:
PORTLAND APP/DEP:128.35
ASOS:118.325
CLNC DEL:119.95
BANGOR RDO:122.6
CTAF/UNICOM:123

KAUG Zoom In..

If you have problems with the map follow the link
https://www.worldairports.se/pages/airport.php?
ICAO=KAUG

Runways:

(A) RW 08 length 2703 ft width 75 ft
---- / hdg 80

(B) RW 17 length 5001 ft width 100 ft
ILS 108.70 / hdg 171

(C) RW 26 length 2703 ft width 75 ft
---- / hdg 260

(D) RW 35 length 5001 ft width 100 ft
---- / hdg 351

Location; KAUG
Day. 08 / Time. 04.53 Zulu
* Altimeter: 30.41
* Temperature: -08° c. -17.6°f.
* Wind from: 290° Speed 05 kn.
Dewpoint: -13° c.
Visibility: 10 Statute Miles.
Clouds: Clear (automated report).

KAUG 080453Z AUTO 29005KT 10SM CLR M08/M13 A3041 RMK AO2 SLP303 T10831133 410221083


Wind From 290°
Speed 05 kn.

 
 
jpsmedia worldairports.se 2019   terms of use